Latest Weather Observations for Wattamolla

IDN60801

Issued at 12:53 pm EDT Monday 26 October 2020 (issued every 10 minutes, with the page automatically refreshed every 10 minutes)

About weather observations | Map of weather stations | Latest weather observations for NSW | Other Formats
Station Details ID: 066208 Name: WATTAMOLLA AWS Lat: -34.14 Lon: 151.12 Height: 44.0 m
Data from the previous 72 hours. | See also: Recent months at Wattamolla
Date/Time
EDT
Temp
°C
App
Temp
°C
Dew
Point
°C
Rel
Hum
%
Delta-T
°C
Wind Press
QNH
hPa
Press
MSL
hPa
Rain since
9am
mm
Dir  Spd
km/h
Gust
km/h
Spd
kts
Gust
kts
26/12:00pm - - - - - SSE 11 50 6 27 - - -
26/11:30am - - - - - SSE 9 48 5 26 - - -
26/11:00am - - - - - SSE 6 46 3 25 - - -
26/10:30am - - - - - SSE 13 48 7 26 - - -
26/10:19am - - - - - SSE 17 50 9 27 - - -
26/10:00am - - - - - SSE 6 44 3 24 - - -
26/09:30am - - - - - SSE 7 54 4 29 - - -
26/09:00am - - - - - SSE 6 56 3 30 - - -
26/08:30am - - - - - SSE 2 50 1 27 - - -
26/08:00am - - - - - SSE 2 46 1 25 - - -
26/07:30am - - - - - SSE 6 46 3 25 - - -
26/07:00am - - - - - SSE 2 46 1 25 - - -
26/06:30am - - - - - SSE 2 48 1 26 - - -
26/06:00am - - - - - SSE 2 46 1 25 - - -
26/05:30am - - - - - SSE 2 44 1 24 - - -
26/05:00am - - - - - CALM 0 44 0 24 - - -
26/04:30am - - - - - SSE 2 41 1 22 - - -
26/04:00am - - - - - SSE 2 46 1 25 - - -
26/03:30am - - - - - SSE 4 46 2 25 - - -
26/03:00am - - - - - SSE 2 41 1 22 - - -
26/02:41am - - - - - SSE 28 59 15 32 - - -
26/02:30am - - - - - SSE 19 61 10 33 - - -
26/02:00am - - - - - SSE 15 56 8 30 - - -
26/01:30am - - - - - SSE 4 50 2 27 - - -
26/01:00am - - - - - SSE 9 50 5 27 - - -
26/12:30am - - - - - SSE 4 50 2 27 - - -
26/12:00am - - - - - SSE 4 46 2 25 - - -
 
Date/Time
EDT
Temp
°C
App
Temp
°C
Dew
Point
°C
Rel
Hum
%
Delta-T
°C
Wind Press
QNH
hPa
Press
MSL
hPa
Rain since
9am
mm
Dir  Spd
km/h
Gust
km/h
Spd
kts
Gust
kts
25/11:30pm - - - - - SSE 4 48 2 26 - - -
25/11:00pm - - - - - SSE 4 48 2 26 - - -
25/10:30pm - - - - - SSE 4 46 2 25 - - -
25/10:00pm - - - - - SSE 4 48 2 26 - - -
25/09:30pm - - - - - SSE 2 46 1 25 - - -
25/09:00pm - - - - - SSE 2 46 1 25 - - -
25/08:30pm - - - - - SSE 2 46 1 25 - - -
25/08:00pm - - - - - SSE 2 46 1 25 - - -
25/07:30pm - - - - - SSE 2 44 1 24 - - -
25/07:00pm - - - - - SSE 2 37 1 20 - - -
25/06:30pm - - - - - CALM 0 20 0 11 - - -
25/06:00pm - - - - - S 15 50 8 27 - - -
25/05:59pm - - - - - S 11 50 6 27 - - -
25/05:30pm - - - - - S 2 46 1 25 - - -
25/05:10pm - - - - - S 9 48 5 26 - - -
25/05:00pm - - - - - S 2 39 1 21 - - -
25/04:30pm - - - - - S 17 50 9 27 - - -
25/04:18pm - - - - - S 15 50 8 27 - - -
25/04:00pm - - - - - S 9 50 5 27 - - -
25/03:46pm - - - - - S 15 50 8 27 - - -
25/03:30pm - - - - - CALM 0 44 0 24 - - -
25/03:00pm - - - - - S 2 48 1 26 - - -
25/02:30pm - - - - - CALM 0 37 0 20 - - -
25/02:00pm - - - - - S 2 50 1 27 - - -
25/01:30pm - - - - - S 4 52 2 28 - - -
25/01:00pm - - - - - S 2 52 1 28 - - -
25/12:30pm - - - - - S 2 48 1 26 - - -
25/12:00pm - - - - - CALM 0 26 0 14 - - -
25/11:30am - - - - - S 2 50 1 27 - - -
25/11:00am - - - - - S 2 48 1 26 - - -
25/10:30am - - - - - S 7 50 4 27 - - -
25/10:00am - - - - - S 2 52 1 28 - - -
25/09:30am - - - - - S 2 50 1 27 - - -
25/09:00am - - - - - S 2 48 1 26 - - -
25/08:30am - - - - - S 2 50 1 27 - - -
25/08:00am - - - - - SSE 6 48 3 26 - - -
25/07:30am - - - - - SSE 2 50 1 27 - - -
25/07:00am - - - - - SSE 4 48 2 26 - - -
25/06:30am - - - - - CALM 0 44 0 24 - - -
25/06:00am - - - - - CALM 0 32 0 17 - - -
25/05:30am - - - - - SSE 2 41 1 22 - - -
25/05:00am - - - - - CALM 0 28 0 15 - - -
25/04:30am - - - - - CALM 0 26 0 14 - - -
25/04:00am - - - - - CALM 0 39 0 21 - - -
25/03:30am - - - - - CALM 0 35 0 19 - - -
25/03:00am - - - - - CALM 0 39 0 21 - - -
25/02:30am - - - - - CALM 0 20 0 11 - - -
25/02:00am - - - - - CALM 0 32 0 17 - - -
25/01:30am - - - - - CALM 0 0 0 0 - - -
25/01:00am - - - - - CALM 0 0 0 0 - - -
25/12:30am - - - - - CALM 0 37 0 20 - - -
25/12:00am - - - - - SSE 20 48 11 26 - - -
 
Date/Time
EDT
Temp
°C
App
Temp
°C
Dew
Point
°C
Rel
Hum
%
Delta-T
°C
Wind Press
QNH
hPa
Press
MSL
hPa
Rain since
9am
mm
Dir  Spd
km/h
Gust
km/h
Spd
kts
Gust
kts
24/11:30pm - - - - - S 7 46 4 25 - - -
24/11:00pm - - - - - SSW 26 44 14 24 - - -
24/10:54pm - - - - - W 17 43 9 23 - - -
24/10:30pm - - - - - NNW 13 19 7 10 - - -
24/10:00pm - - - - - N 7 9 4 5 - - -
24/09:30pm - - - - - NNW 13 17 7 9 - - -
24/09:00pm - - - - - N 15 20 8 11 - - -
24/08:30pm - - - - - N 9 11 5 6 - - -
24/08:00pm - - - - - NNW 11 13 6 7 - - -
24/07:30pm - - - - - N 6 9 3 5 - - -
24/07:00pm - - - - - N 15 19 8 10 - - -
24/06:30pm - - - - - N 17 26 9 14 - - -
24/06:00pm - - - - - N 13 19 7 10 - - -
24/05:30pm - - - - - NNW 9 13 5 7 - - -
24/05:00pm - - - - - N 17 20 9 11 - - -
24/04:30pm - - - - - N 9 13 5 7 - - -
24/04:00pm - - - - - N 19 24 10 13 - - -
24/03:30pm - - - - - NNW 15 22 8 12 - - -
24/03:00pm - - - - - NNW 20 32 11 17 - - -
24/02:30pm - - - - - NNW 17 30 9 16 - - -
24/02:00pm - - - - - NNW 22 28 12 15 - - -
24/01:30pm - - - - - NNW 22 33 12 18 - - -
24/01:00pm - - - - - NNW 26 39 14 21 - - -
24/12:30pm - - - - - NNW 32 43 17 23 - - -
24/12:00pm - - - - - NNW 28 41 15 22 - - -
24/11:30am - - - - - N 28 41 15 22 - - -
24/11:27am - - - - - NNW 28 46 15 25 - - -
24/11:00am - - - - - NNW 32 48 17 26 - - -
24/10:49am - - - - - NNW 28 48 15 26 - - -
24/10:30am - - - - - NNW 20 32 11 17 - - -
24/10:00am - - - - - N 26 39 14 21 - - -
24/09:30am - - - - - N 30 39 16 21 - - -
24/09:00am - - - - - N 26 35 14 19 - - -
24/08:30am - - - - - N 24 33 13 18 - - -
24/08:00am - - - - - NNW 22 32 12 17 - - -
24/07:30am - - - - - N 24 32 13 17 - - -
24/07:00am - - - - - N 20 28 11 15 - - -
24/06:30am - - - - - NNW 19 26 10 14 - - -
24/06:00am - - - - - N 13 17 7 9 - - -
24/05:30am - - - - - NNE 13 17 7 9 - - -
24/05:00am - - - - - NE 13 20 7 11 - - -
24/04:30am - - - - - N 9 13 5 7 - - -
24/04:00am - - - - - NW 6 9 3 5 - - -
24/03:30am - - - - - NNW 13 19 7 10 - - -
24/03:00am - - - - - NW 9 15 5 8 - - -
24/02:30am - - - - - NNW 11 17 6 9 - - -
24/02:00am - - - - - N 13 19 7 10 - - -
24/01:30am - - - - - N 13 19 7 10 - - -
24/01:00am - - - - - NNE 11 15 6 8 - - -
24/12:30am - - - - - NNE 13 19 7 10 - - -
24/12:00am - - - - - N 26 41 14 22 - - -
 
Date/Time
EDT
Temp
°C
App
Temp
°C
Dew
Point
°C
Rel
Hum
%
Delta-T
°C
Wind Press
QNH
hPa
Press
MSL
hPa
Rain since
9am
mm
Dir  Spd
km/h
Gust
km/h
Spd
kts
Gust
kts
23/11:30pm - - - - - N 22 33 12 18 - - -
23/11:00pm - - - - - NNE 28 37 15 20 - - -
23/10:30pm - - - - - NNE 26 39 14 21 - - -
23/10:00pm - - - - - NNE 28 44 15 24 - - -
23/09:30pm - - - - - NNE 26 41 14 22 - - -
23/09:00pm - - - - - NNE 24 37 13 20 - - -
23/08:30pm - - - - - NNE 24 35 13 19 - - -
23/08:00pm - - - - - NNE 32 46 17 25 - - -
23/07:30pm - - - - - NNE 28 46 15 25 - - -
23/07:24pm - - - - - NNE 28 46 15 25 - - -
23/07:00pm - - - - - NNE 28 39 15 21 - - -
23/06:32pm - - - - - NNE 33 52 18 28 - - -
23/06:30pm - - - - - NNE 33 46 18 25 - - -
23/06:01pm - - - - - NNE 30 48 16 26 - - -
23/06:00pm - - - - - NNE 30 43 16 23 - - -
23/05:30pm - - - - - NNE 28 46 15 25 - - -
23/05:19pm - - - - - NNE 30 52 16 28 - - -
23/05:00pm - - - - - NNE 30 43 16 23 - - -
23/04:30pm - - - - - NE 26 35 14 19 - - -
23/04:00pm - - - - - NNE 26 39 14 21 - - -
23/03:30pm - - - - - NNE 28 39 15 21 - - -
23/03:00pm - - - - - NNE 30 44 16 24 - - -
23/02:30pm - - - - - NE 28 39 15 21 - - -
23/02:00pm - - - - - NE 24 35 13 19 - - -
23/01:30pm - - - - - NE 26 33 14 18 - - -
23/01:00pm - - - - - NE 24 33 13 18 - - -

Other formats

Comma delimited format used in spreadsheet applications
http://www.bom.gov.au/fwo/IDN60801/IDN60801.95752.axf

JavaScript Object Notation format (JSON) in row-major order
http://www.bom.gov.au/fwo/IDN60801/IDN60801.95752.json

Data quality

Most of these data are generated automatically and are frequently updated. Quality checks on data are not normally performed. It is possible for incorrect values to appear. Refer to information at About Latest Weather Observations and please check the disclaimer before using these data.